sensor_id;sensor_type;location;lat;lon;timestamp;temperature;humidity
11511;DHT22;5812;48.864;9.190;2022-12-11T00:00:50;-2.60;99.90
11511;DHT22;5812;48.864;9.190;2022-12-11T00:03:16;-2.60;99.90
11511;DHT22;5812;48.864;9.190;2022-12-11T00:05:43;-2.60;99.90
11511;DHT22;5812;48.864;9.190;2022-12-11T00:08:09;-2.60;99.90
11511;DHT22;5812;48.864;9.190;2022-12-11T00:10:35;-2.70;99.90
11511;DHT22;5812;48.864;9.190;2022-12-11T00:13:01;-2.70;99.90
11511;DHT22;5812;48.864;9.190;2022-12-11T00:15:28;-2.60;99.90
11511;DHT22;5812;48.864;9.190;2022-12-11T00:17:53;-2.50;99.90
11511;DHT22;5812;48.864;9.190;2022-12-11T00:20:19;-2.50;99.90
11511;DHT22;5812;48.864;9.190;2022-12-11T00:22:45;-2.30;99.90
11511;DHT22;5812;48.864;9.190;2022-12-11T00:25:11;-2.30;99.90
11511;DHT22;5812;48.864;9.190;2022-12-11T00:27:36;-2.20;99.90
11511;DHT22;5812;48.864;9.190;2022-12-11T00:30:03;-2.10;99.90
11511;DHT22;5812;48.864;9.190;2022-12-11T00:32:28;-2.00;99.90
11511;DHT22;5812;48.864;9.190;2022-12-11T00:34:54;-2.00;99.90
11511;DHT22;5812;48.864;9.190;2022-12-11T00:37:20;-1.90;99.90
11511;DHT22;5812;48.864;9.190;2022-12-11T00:39:45;-1.90;99.90
11511;DHT22;5812;48.864;9.190;2022-12-11T00:42:11;-1.90;99.90
11511;DHT22;5812;48.864;9.190;2022-12-11T00:44:36;-1.90;99.90
11511;DHT22;5812;48.864;9.190;2022-12-11T00:47:02;-1.80;99.90
11511;DHT22;5812;48.864;9.190;2022-12-11T00:49:28;-1.70;99.90
11511;DHT22;5812;48.864;9.190;2022-12-11T00:51:53;-1.70;99.90
11511;DHT22;5812;48.864;9.190;2022-12-11T00:54:19;-1.60;99.90
11511;DHT22;5812;48.864;9.190;2022-12-11T00:56:45;-1.60;99.90
11511;DHT22;5812;48.864;9.190;2022-12-11T00:59:10;-1.50;99.90
11511;DHT22;5812;48.864;9.190;2022-12-11T01:01:36;-1.50;99.90
11511;DHT22;5812;48.864;9.190;2022-12-11T01:04:01;-1.50;99.90
11511;DHT22;5812;48.864;9.190;2022-12-11T01:06:28;-1.50;99.90
11511;DHT22;5812;48.864;9.190;2022-12-11T01:08:54;-1.50;99.90
11511;DHT22;5812;48.864;9.190;2022-12-11T01:11:40;-1.50;99.90
11511;DHT22;5812;48.864;9.190;2022-12-11T01:14:06;-1.50;99.90
11511;DHT22;5812;48.864;9.190;2022-12-11T01:16:32;-1.50;99.90
11511;DHT22;5812;48.864;9.190;2022-12-11T01:18:58;-1.50;99.90
11511;DHT22;5812;48.864;9.190;2022-12-11T01:21:24;-1.40;99.90
11511;DHT22;5812;48.864;9.190;2022-12-11T01:23:50;-1.40;99.90
11511;DHT22;5812;48.864;9.190;2022-12-11T01:26:17;-1.40;99.90
11511;DHT22;5812;48.864;9.190;2022-12-11T01:28:43;-1.40;99.90
11511;DHT22;5812;48.864;9.190;2022-12-11T01:31:10;-1.30;99.90
11511;DHT22;5812;48.864;9.190;2022-12-11T01:33:37;-1.30;99.90
11511;DHT22;5812;48.864;9.190;2022-12-11T01:36:09;-1.30;99.90
11511;DHT22;5812;48.864;9.190;2022-12-11T01:38:35;-1.40;99.90
11511;DHT22;5812;48.864;9.190;2022-12-11T01:41:01;-1.40;99.90
11511;DHT22;5812;48.864;9.190;2022-12-11T01:43:27;-1.40;99.90
11511;DHT22;5812;48.864;9.190;2022-12-11T01:45:52;-1.40;99.90
11511;DHT22;5812;48.864;9.190;2022-12-11T01:48:21;-1.40;99.90
11511;DHT22;5812;48.864;9.190;2022-12-11T01:50:54;-1.30;99.90
11511;DHT22;5812;48.864;9.190;2022-12-11T01:53:27;-1.30;99.90
11511;DHT22;5812;48.864;9.190;2022-12-11T01:55:56;-1.30;99.90
11511;DHT22;5812;48.864;9.190;2022-12-11T01:58:26;-1.20;99.90
11511;DHT22;5812;48.864;9.190;2022-12-11T02:00:53;-1.20;99.90
11511;DHT22;5812;48.864;9.190;2022-12-11T02:03:20;-1.20;99.90
11511;DHT22;5812;48.864;9.190;2022-12-11T02:05:46;-1.10;99.90
11511;DHT22;5812;48.864;9.190;2022-12-11T02:08:11;-1.10;99.90
11511;DHT22;5812;48.864;9.190;2022-12-11T02:13:30;-1.10;99.90
11511;DHT22;5812;48.864;9.190;2022-12-11T02:18:46;-1.10;99.90
11511;DHT22;5812;48.864;9.190;2022-12-11T02:21:24;-1.10;99.90
11511;DHT22;5812;48.864;9.190;2022-12-11T02:24:03;-1.10;99.90
11511;DHT22;5812;48.864;9.190;2022-12-11T02:29:42;-1.10;99.90
11511;DHT22;5812;48.864;9.190;2022-12-11T02:32:16;-1.10;99.90
11511;DHT22;5812;48.864;9.190;2022-12-11T02:35:15;-1.00;99.90
11511;DHT22;5812;48.864;9.190;2022-12-11T02:37:44;-1.00;99.90
11511;DHT22;5812;48.864;9.190;2022-12-11T02:40:12;-1.00;99.90
11511;DHT22;5812;48.864;9.190;2022-12-11T02:42:40;-1.00;99.90
11511;DHT22;5812;48.864;9.190;2022-12-11T02:45:07;-1.00;99.90
11511;DHT22;5812;48.864;9.190;2022-12-11T02:47:34;-1.00;99.90
11511;DHT22;5812;48.864;9.190;2022-12-11T02:50:02;-1.00;99.90
11511;DHT22;5812;48.864;9.190;2022-12-11T02:52:32;-1.00;99.90
11511;DHT22;5812;48.864;9.190;2022-12-11T02:55:00;-1.00;99.90
11511;DHT22;5812;48.864;9.190;2022-12-11T02:57:41;-1.00;99.90
11511;DHT22;5812;48.864;9.190;2022-12-11T03:00:09;-1.00;99.90
11511;DHT22;5812;48.864;9.190;2022-12-11T03:02:36;-0.90;99.90
11511;DHT22;5812;48.864;9.190;2022-12-11T03:05:02;-0.90;99.90
11511;DHT22;5812;48.864;9.190;2022-12-11T03:07:32;-0.90;99.90
11511;DHT22;5812;48.864;9.190;2022-12-11T03:09:58;-0.90;99.90
11511;DHT22;5812;48.864;9.190;2022-12-11T03:12:30;-0.80;99.90
11511;DHT22;5812;48.864;9.190;2022-12-11T03:14:58;-0.90;99.90
11511;DHT22;5812;48.864;9.190;2022-12-11T03:17:43;-0.90;99.90
11511;DHT22;5812;48.864;9.190;2022-12-11T03:28:20;-0.90;99.90
11511;DHT22;5812;48.864;9.190;2022-12-11T03:30:50;-0.90;99.90
11511;DHT22;5812;48.864;9.190;2022-12-11T03:33:32;-0.90;99.90
11511;DHT22;5812;48.864;9.190;2022-12-11T03:36:03;-0.90;99.90
11511;DHT22;5812;48.864;9.190;2022-12-11T03:38:40;-0.90;99.90
11511;DHT22;5812;48.864;9.190;2022-12-11T03:41:08;-0.90;99.90
11511;DHT22;5812;48.864;9.190;2022-12-11T03:43:35;-0.90;99.90
11511;DHT22;5812;48.864;9.190;2022-12-11T03:46:02;-0.90;99.90
11511;DHT22;5812;48.864;9.190;2022-12-11T03:48:31;-0.90;99.90
11511;DHT22;5812;48.864;9.190;2022-12-11T03:50:58;-0.90;99.90
11511;DHT22;5812;48.864;9.190;2022-12-11T03:53:25;-1.00;99.90
11511;DHT22;5812;48.864;9.190;2022-12-11T03:55:53;-1.00;99.90
11511;DHT22;5812;48.864;9.190;2022-12-11T03:58:20;-1.00;99.90
11511;DHT22;5812;48.864;9.190;2022-12-11T04:00:46;-1.00;99.90
11511;DHT22;5812;48.864;9.190;2022-12-11T04:03:11;-1.00;99.90
11511;DHT22;5812;48.864;9.190;2022-12-11T04:05:37;-1.00;99.90
11511;DHT22;5812;48.864;9.190;2022-12-11T04:08:03;-1.00;99.90
11511;DHT22;5812;48.864;9.190;2022-12-11T04:10:29;-1.00;99.90
11511;DHT22;5812;48.864;9.190;2022-12-11T04:12:54;-1.00;99.90
11511;DHT22;5812;48.864;9.190;2022-12-11T04:15:20;-1.00;99.90
11511;DHT22;5812;48.864;9.190;2022-12-11T04:17:45;-1.00;99.90
11511;DHT22;5812;48.864;9.190;2022-12-11T04:20:29;-1.00;99.90
11511;DHT22;5812;48.864;9.190;2022-12-11T04:23:15;-1.00;99.90
11511;DHT22;5812;48.864;9.190;2022-12-11T04:26:11;-1.10;99.90
11511;DHT22;5812;48.864;9.190;2022-12-11T04:28:37;-1.10;99.90
11511;DHT22;5812;48.864;9.190;2022-12-11T04:31:03;-1.00;99.90
11511;DHT22;5812;48.864;9.190;2022-12-11T04:33:29;-1.00;99.90
11511;DHT22;5812;48.864;9.190;2022-12-11T04:35:59;-1.10;99.90
11511;DHT22;5812;48.864;9.190;2022-12-11T04:38:25;-1.10;99.90
11511;DHT22;5812;48.864;9.190;2022-12-11T04:41:07;-1.10;99.90
11511;DHT22;5812;48.864;9.190;2022-12-11T04:43:32;-1.10;99.90
11511;DHT22;5812;48.864;9.190;2022-12-11T04:46:08;-1.10;99.90
11511;DHT22;5812;48.864;9.190;2022-12-11T04:48:34;-1.10;99.90
11511;DHT22;5812;48.864;9.190;2022-12-11T04:51:00;-1.10;99.90
11511;DHT22;5812;48.864;9.190;2022-12-11T04:53:26;-1.10;99.90
11511;DHT22;5812;48.864;9.190;2022-12-11T04:55:51;-1.10;99.90
11511;DHT22;5812;48.864;9.190;2022-12-11T04:58:17;-1.10;99.90
11511;DHT22;5812;48.864;9.190;2022-12-11T05:00:43;-1.10;99.90
11511;DHT22;5812;48.864;9.190;2022-12-11T05:03:08;-1.20;99.90
11511;DHT22;5812;48.864;9.190;2022-12-11T05:05:34;-1.10;99.90
11511;DHT22;5812;48.864;9.190;2022-12-11T05:08:00;-1.20;99.90
11511;DHT22;5812;48.864;9.190;2022-12-11T05:10:25;-1.10;99.90
11511;DHT22;5812;48.864;9.190;2022-12-11T05:12:51;-1.20;99.90
11511;DHT22;5812;48.864;9.190;2022-12-11T05:15:17;-1.30;99.90
11511;DHT22;5812;48.864;9.190;2022-12-11T05:17:42;-1.40;99.90
11511;DHT22;5812;48.864;9.190;2022-12-11T05:20:08;-1.50;99.90
11511;DHT22;5812;48.864;9.190;2022-12-11T05:22:35;-1.50;99.90
11511;DHT22;5812;48.864;9.190;2022-12-11T05:25:01;-1.60;99.90
11511;DHT22;5812;48.864;9.190;2022-12-11T05:27:26;-1.60;99.90
11511;DHT22;5812;48.864;9.190;2022-12-11T05:29:52;-1.70;99.90
11511;DHT22;5812;48.864;9.190;2022-12-11T05:32:17;-1.70;99.90
11511;DHT22;5812;48.864;9.190;2022-12-11T05:34:43;-1.70;99.90
11511;DHT22;5812;48.864;9.190;2022-12-11T05:37:08;-1.80;99.90
11511;DHT22;5812;48.864;9.190;2022-12-11T05:39:34;-1.80;99.90
11511;DHT22;5812;48.864;9.190;2022-12-11T05:42:00;-1.90;99.90
11511;DHT22;5812;48.864;9.190;2022-12-11T05:44:26;-1.90;99.90
11511;DHT22;5812;48.864;9.190;2022-12-11T05:46:52;-1.90;99.90
11511;DHT22;5812;48.864;9.190;2022-12-11T05:49:17;-2.00;99.90
11511;DHT22;5812;48.864;9.190;2022-12-11T05:51:43;-2.10;99.90
11511;DHT22;5812;48.864;9.190;2022-12-11T05:54:09;-2.10;99.90
11511;DHT22;5812;48.864;9.190;2022-12-11T05:56:35;-2.30;99.90
11511;DHT22;5812;48.864;9.190;2022-12-11T05:59:02;-2.40;99.90
11511;DHT22;5812;48.864;9.190;2022-12-11T06:01:31;-2.50;99.90
11511;DHT22;5812;48.864;9.190;2022-12-11T06:03:58;-2.50;99.90
11511;DHT22;5812;48.864;9.190;2022-12-11T06:06:25;-2.60;99.90
11511;DHT22;5812;48.864;9.190;2022-12-11T06:08:52;-2.80;99.90
11511;DHT22;5812;48.864;9.190;2022-12-11T06:11:18;-2.80;99.90
11511;DHT22;5812;48.864;9.190;2022-12-11T06:13:44;-2.80;99.90
11511;DHT22;5812;48.864;9.190;2022-12-11T06:16:10;-2.80;99.90
11511;DHT22;5812;48.864;9.190;2022-12-11T06:18:46;-2.80;99.90
11511;DHT22;5812;48.864;9.190;2022-12-11T06:23:49;-2.60;99.90
11511;DHT22;5812;48.864;9.190;2022-12-11T06:26:16;-2.60;99.90
11511;DHT22;5812;48.864;9.190;2022-12-11T06:28:41;-2.80;99.90
11511;DHT22;5812;48.864;9.190;2022-12-11T06:31:07;-2.90;99.90
11511;DHT22;5812;48.864;9.190;2022-12-11T06:33:33;-3.00;99.90
11511;DHT22;5812;48.864;9.190;2022-12-11T06:36:04;-2.80;99.90
11511;DHT22;5812;48.864;9.190;2022-12-11T06:38:30;-2.90;99.90
11511;DHT22;5812;48.864;9.190;2022-12-11T06:40:57;-2.90;99.90
11511;DHT22;5812;48.864;9.190;2022-12-11T06:43:23;-2.90;99.90
11511;DHT22;5812;48.864;9.190;2022-12-11T06:45:49;-2.90;99.90
11511;DHT22;5812;48.864;9.190;2022-12-11T06:48:15;-2.90;99.90
11511;DHT22;5812;48.864;9.190;2022-12-11T06:50:40;-2.90;99.90
11511;DHT22;5812;48.864;9.190;2022-12-11T06:53:06;-2.90;99.90
11511;DHT22;5812;48.864;9.190;2022-12-11T06:55:34;-2.80;99.90
11511;DHT22;5812;48.864;9.190;2022-12-11T06:58:00;-2.80;99.90
11511;DHT22;5812;48.864;9.190;2022-12-11T07:00:26;-2.80;99.90
11511;DHT22;5812;48.864;9.190;2022-12-11T07:02:51;-2.70;99.90
11511;DHT22;5812;48.864;9.190;2022-12-11T07:05:17;-2.60;99.90
11511;DHT22;5812;48.864;9.190;2022-12-11T07:07:42;-2.50;99.90
11511;DHT22;5812;48.864;9.190;2022-12-11T07:10:08;-2.40;99.90
11511;DHT22;5812;48.864;9.190;2022-12-11T07:12:35;-2.40;99.90
11511;DHT22;5812;48.864;9.190;2022-12-11T07:15:01;-2.40;99.90
11511;DHT22;5812;48.864;9.190;2022-12-11T07:17:28;-2.30;99.90
11511;DHT22;5812;48.864;9.190;2022-12-11T07:19:54;-2.30;99.90
11511;DHT22;5812;48.864;9.190;2022-12-11T07:22:19;-2.30;99.90
11511;DHT22;5812;48.864;9.190;2022-12-11T07:24:45;-2.20;99.90
11511;DHT22;5812;48.864;9.190;2022-12-11T07:27:10;-2.20;99.90
11511;DHT22;5812;48.864;9.190;2022-12-11T07:29:36;-2.10;99.90
11511;DHT22;5812;48.864;9.190;2022-12-11T07:32:02;-2.00;99.90
11511;DHT22;5812;48.864;9.190;2022-12-11T07:34:27;-2.00;99.90
11511;DHT22;5812;48.864;9.190;2022-12-11T07:36:53;-1.90;99.90
11511;DHT22;5812;48.864;9.190;2022-12-11T07:39:18;-1.90;99.90
11511;DHT22;5812;48.864;9.190;2022-12-11T07:41:44;-1.80;99.90
11511;DHT22;5812;48.864;9.190;2022-12-11T07:44:11;-1.70;99.90
11511;DHT22;5812;48.864;9.190;2022-12-11T07:46:37;-1.70;99.90
11511;DHT22;5812;48.864;9.190;2022-12-11T07:49:05;-1.70;99.90
11511;DHT22;5812;48.864;9.190;2022-12-11T07:51:33;-1.60;99.90
11511;DHT22;5812;48.864;9.190;2022-12-11T07:54:07;-1.60;99.90
11511;DHT22;5812;48.864;9.190;2022-12-11T07:56:33;-1.60;99.90
11511;DHT22;5812;48.864;9.190;2022-12-11T07:59:01;-1.60;99.90
11511;DHT22;5812;48.864;9.190;2022-12-11T08:01:29;-1.50;99.90
11511;DHT22;5812;48.864;9.190;2022-12-11T08:03:55;-1.50;99.90
11511;DHT22;5812;48.864;9.190;2022-12-11T08:06:30;-1.40;99.90
11511;DHT22;5812;48.864;9.190;2022-12-11T08:08:57;-1.40;99.90
11511;DHT22;5812;48.864;9.190;2022-12-11T08:11:23;-1.30;99.90
11511;DHT22;5812;48.864;9.190;2022-12-11T08:13:49;-1.30;99.90
11511;DHT22;5812;48.864;9.190;2022-12-11T08:16:16;-1.30;99.90
11511;DHT22;5812;48.864;9.190;2022-12-11T08:18:42;-1.30;99.90
11511;DHT22;5812;48.864;9.190;2022-12-11T08:21:10;-1.30;99.90
11511;DHT22;5812;48.864;9.190;2022-12-11T08:23:36;-1.30;99.90
11511;DHT22;5812;48.864;9.190;2022-12-11T08:26:03;-1.20;99.90
11511;DHT22;5812;48.864;9.190;2022-12-11T08:28:29;-1.20;99.90
11511;DHT22;5812;48.864;9.190;2022-12-11T08:30:55;-1.20;99.90
11511;DHT22;5812;48.864;9.190;2022-12-11T08:33:21;-1.20;99.90
11511;DHT22;5812;48.864;9.190;2022-12-11T08:35:47;-1.20;99.90
11511;DHT22;5812;48.864;9.190;2022-12-11T08:38:12;-1.30;99.90
11511;DHT22;5812;48.864;9.190;2022-12-11T08:40:38;-1.20;99.90
11511;DHT22;5812;48.864;9.190;2022-12-11T08:43:03;-1.00;99.90
11511;DHT22;5812;48.864;9.190;2022-12-11T08:45:29;-1.00;99.90
11511;DHT22;5812;48.864;9.190;2022-12-11T08:47:55;-1.00;99.90
11511;DHT22;5812;48.864;9.190;2022-12-11T08:50:20;-1.00;99.90
11511;DHT22;5812;48.864;9.190;2022-12-11T08:52:46;-1.00;99.90
11511;DHT22;5812;48.864;9.190;2022-12-11T08:55:11;-0.90;99.90
11511;DHT22;5812;48.864;9.190;2022-12-11T08:57:37;-0.80;99.90
11511;DHT22;5812;48.864;9.190;2022-12-11T09:00:05;-0.80;99.90
11511;DHT22;5812;48.864;9.190;2022-12-11T09:02:31;-0.80;99.90
11511;DHT22;5812;48.864;9.190;2022-12-11T09:04:56;-0.90;99.90
11511;DHT22;5812;48.864;9.190;2022-12-11T09:07:22;-0.90;99.90
11511;DHT22;5812;48.864;9.190;2022-12-11T09:09:48;-1.00;99.90
11511;DHT22;5812;48.864;9.190;2022-12-11T09:12:14;-0.70;99.90
11511;DHT22;5812;48.864;9.190;2022-12-11T09:14:40;-0.60;99.90
11511;DHT22;5812;48.864;9.190;2022-12-11T09:17:05;-0.70;99.90
11511;DHT22;5812;48.864;9.190;2022-12-11T09:19:31;-0.50;99.90
11511;DHT22;5812;48.864;9.190;2022-12-11T09:21:56;-0.60;99.90
11511;DHT22;5812;48.864;9.190;2022-12-11T09:24:22;-0.40;99.90
11511;DHT22;5812;48.864;9.190;2022-12-11T09:26:47;-0.30;99.90
11511;DHT22;5812;48.864;9.190;2022-12-11T09:29:13;-0.30;99.90
11511;DHT22;5812;48.864;9.190;2022-12-11T09:31:39;-0.30;99.90
11511;DHT22;5812;48.864;9.190;2022-12-11T09:34:07;-0.20;99.90
11511;DHT22;5812;48.864;9.190;2022-12-11T09:36:33;-0.10;99.90
11511;DHT22;5812;48.864;9.190;2022-12-11T09:39:03;-0.10;99.90
11511;DHT22;5812;48.864;9.190;2022-12-11T09:41:59;0.00;99.90
11511;DHT22;5812;48.864;9.190;2022-12-11T09:44:46;0.00;99.90
11511;DHT22;5812;48.864;9.190;2022-12-11T09:47:20;0.20;99.90
11511;DHT22;5812;48.864;9.190;2022-12-11T09:49:50;0.40;99.90
11511;DHT22;5812;48.864;9.190;2022-12-11T09:53:24;0.50;99.90
11511;DHT22;5812;48.864;9.190;2022-12-11T09:55:27;0.50;99.90
11511;DHT22;5812;48.864;9.190;2022-12-11T09:58:01;0.50;99.90
11511;DHT22;5812;48.864;9.190;2022-12-11T10:00:40;0.60;99.90
11511;DHT22;5812;48.864;9.190;2022-12-11T10:06:17;1.10;99.90
11511;DHT22;5812;48.864;9.190;2022-12-11T10:17:22;0.40;99.90
11511;DHT22;5812;48.864;9.190;2022-12-11T10:19:50;0.30;99.90
11511;DHT22;5812;48.864;9.190;2022-12-11T10:22:25;0.40;99.90
11511;DHT22;5812;48.864;9.190;2022-12-11T10:25:04;0.30;99.90
11511;DHT22;5812;48.864;9.190;2022-12-11T10:27:34;0.20;99.90
11511;DHT22;5812;48.864;9.190;2022-12-11T10:32:54;0.30;99.90
11511;DHT22;5812;48.864;9.190;2022-12-11T10:35:33;0.30;99.90
11511;DHT22;5812;48.864;9.190;2022-12-11T10:40:50;0.20;99.90
11511;DHT22;5812;48.864;9.190;2022-12-11T10:43:16;0.10;99.90
11511;DHT22;5812;48.864;9.190;2022-12-11T10:45:53;0.20;99.90
11511;DHT22;5812;48.864;9.190;2022-12-11T10:48:19;0.60;99.90
11511;DHT22;5812;48.864;9.190;2022-12-11T10:50:58;0.90;99.90
11511;DHT22;5812;48.864;9.190;2022-12-11T10:53:25;1.00;99.90
11511;DHT22;5812;48.864;9.190;2022-12-11T10:55:51;1.00;99.90
11511;DHT22;5812;48.864;9.190;2022-12-11T10:58:24;0.90;99.90
11511;DHT22;5812;48.864;9.190;2022-12-11T11:01:10;0.80;99.90
11511;DHT22;5812;48.864;9.190;2022-12-11T11:03:56;0.70;99.90
11511;DHT22;5812;48.864;9.190;2022-12-11T11:06:23;0.80;99.90
11511;DHT22;5812;48.864;9.190;2022-12-11T11:08:54;0.80;99.90
11511;DHT22;5812;48.864;9.190;2022-12-11T11:13:49;0.80;99.90
11511;DHT22;5812;48.864;9.190;2022-12-11T11:16:17;0.80;99.90
11511;DHT22;5812;48.864;9.190;2022-12-11T11:18:51;0.90;99.90
11511;DHT22;5812;48.864;9.190;2022-12-11T11:21:19;1.20;99.90
11511;DHT22;5812;48.864;9.190;2022-12-11T11:23:45;1.40;99.90
11511;DHT22;5812;48.864;9.190;2022-12-11T11:26:11;1.30;99.90
11511;DHT22;5812;48.864;9.190;2022-12-11T11:28:40;1.50;99.90
11511;DHT22;5812;48.864;9.190;2022-12-11T11:31:10;1.50;99.90
11511;DHT22;5812;48.864;9.190;2022-12-11T11:33:36;1.50;99.90
11511;DHT22;5812;48.864;9.190;2022-12-11T11:36:39;1.50;99.90
11511;DHT22;5812;48.864;9.190;2022-12-11T11:39:36;1.10;99.90
11511;DHT22;5812;48.864;9.190;2022-12-11T11:42:16;0.80;99.90
11511;DHT22;5812;48.864;9.190;2022-12-11T11:47:30;0.70;99.90
11511;DHT22;5812;48.864;9.190;2022-12-11T11:50:05;0.80;99.90
11511;DHT22;5812;48.864;9.190;2022-12-11T11:52:38;0.60;99.90
11511;DHT22;5812;48.864;9.190;2022-12-11T11:55:38;0.90;99.90
11511;DHT22;5812;48.864;9.190;2022-12-11T11:58:13;0.90;99.90
11511;DHT22;5812;48.864;9.190;2022-12-11T12:00:39;0.90;99.90
11511;DHT22;5812;48.864;9.190;2022-12-11T12:03:13;0.70;99.90
11511;DHT22;5812;48.864;9.190;2022-12-11T12:05:53;0.80;99.90
11511;DHT22;5812;48.864;9.190;2022-12-11T12:11:06;0.80;99.90
11511;DHT22;5812;48.864;9.190;2022-12-11T12:13:39;0.60;99.90
11511;DHT22;5812;48.864;9.190;2022-12-11T12:16:17;0.50;99.90
11511;DHT22;5812;48.864;9.190;2022-12-11T12:18:51;0.60;99.90
11511;DHT22;5812;48.864;9.190;2022-12-11T12:21:26;0.70;99.90
11511;DHT22;5812;48.864;9.190;2022-12-11T12:26:40;0.70;99.90
11511;DHT22;5812;48.864;9.190;2022-12-11T12:37:32;1.10;99.90
11511;DHT22;5812;48.864;9.190;2022-12-11T12:45:17;1.00;99.90
11511;DHT22;5812;48.864;9.190;2022-12-11T12:47:49;1.00;99.90
11511;DHT22;5812;48.864;9.190;2022-12-11T12:50:18;1.00;99.90
11511;DHT22;5812;48.864;9.190;2022-12-11T12:52:44;0.70;99.90
11511;DHT22;5812;48.864;9.190;2022-12-11T12:57:55;1.00;99.90
11511;DHT22;5812;48.864;9.190;2022-12-11T13:00:41;0.80;99.90
11511;DHT22;5812;48.864;9.190;2022-12-11T13:03:18;0.60;99.90
11511;DHT22;5812;48.864;9.190;2022-12-11T13:06:05;0.60;99.90
11511;DHT22;5812;48.864;9.190;2022-12-11T13:08:46;0.60;99.90
11511;DHT22;5812;48.864;9.190;2022-12-11T13:11:15;0.50;99.90
11511;DHT22;5812;48.864;9.190;2022-12-11T13:13:44;0.60;99.90
11511;DHT22;5812;48.864;9.190;2022-12-11T13:18:39;0.60;99.90
11511;DHT22;5812;48.864;9.190;2022-12-11T13:21:26;0.60;99.90
11511;DHT22;5812;48.864;9.190;2022-12-11T13:23:52;0.70;99.90
11511;DHT22;5812;48.864;9.190;2022-12-11T13:26:31;1.10;99.90
11511;DHT22;5812;48.864;9.190;2022-12-11T13:28:57;1.00;99.90
11511;DHT22;5812;48.864;9.190;2022-12-11T13:31:33;0.90;99.90
11511;DHT22;5812;48.864;9.190;2022-12-11T13:34:17;0.50;99.90
11511;DHT22;5812;48.864;9.190;2022-12-11T13:36:50;0.20;99.90
11511;DHT22;5812;48.864;9.190;2022-12-11T13:39:34;0.10;99.90
11511;DHT22;5812;48.864;9.190;2022-12-11T13:42:05;0.20;99.90
11511;DHT22;5812;48.864;9.190;2022-12-11T13:44:38;0.30;99.90
11511;DHT22;5812;48.864;9.190;2022-12-11T13:47:06;0.40;99.90
11511;DHT22;5812;48.864;9.190;2022-12-11T13:49:38;0.60;99.90
11511;DHT22;5812;48.864;9.190;2022-12-11T13:52:05;0.80;99.90
11511;DHT22;5812;48.864;9.190;2022-12-11T13:54:33;0.90;99.90
11511;DHT22;5812;48.864;9.190;2022-12-11T14:02:24;0.90;99.90
11511;DHT22;5812;48.864;9.190;2022-12-11T14:04:52;1.00;99.90
11511;DHT22;5812;48.864;9.190;2022-12-11T14:07:33;1.10;99.90
11511;DHT22;5812;48.864;9.190;2022-12-11T14:10:05;0.90;99.90
11511;DHT22;5812;48.864;9.190;2022-12-11T14:12:33;0.70;99.90
11511;DHT22;5812;48.864;9.190;2022-12-11T14:15:02;0.40;99.90
11511;DHT22;5812;48.864;9.190;2022-12-11T14:17:31;0.40;99.90
11511;DHT22;5812;48.864;9.190;2022-12-11T14:19:59;0.60;99.90
11511;DHT22;5812;48.864;9.190;2022-12-11T14:22:27;0.50;99.90
11511;DHT22;5812;48.864;9.190;2022-12-11T14:24:56;0.40;99.90
11511;DHT22;5812;48.864;9.190;2022-12-11T14:27:23;0.30;99.90
11511;DHT22;5812;48.864;9.190;2022-12-11T14:29:49;0.40;99.90
11511;DHT22;5812;48.864;9.190;2022-12-11T14:34:48;0.40;99.90
11511;DHT22;5812;48.864;9.190;2022-12-11T14:37:16;0.30;99.90
11511;DHT22;5812;48.864;9.190;2022-12-11T14:39:53;0.30;99.90
11511;DHT22;5812;48.864;9.190;2022-12-11T14:42:33;0.40;99.90
11511;DHT22;5812;48.864;9.190;2022-12-11T14:48:24;0.20;99.90
11511;DHT22;5812;48.864;9.190;2022-12-11T14:50:55;0.10;99.90
11511;DHT22;5812;48.864;9.190;2022-12-11T14:53:27;0.10;99.90
11511;DHT22;5812;48.864;9.190;2022-12-11T14:55:56;0.10;99.90
11511;DHT22;5812;48.864;9.190;2022-12-11T14:58:24;0.00;99.90
11511;DHT22;5812;48.864;9.190;2022-12-11T15:01:20;0.00;99.90
11511;DHT22;5812;48.864;9.190;2022-12-11T15:03:46;0.10;99.90
11511;DHT22;5812;48.864;9.190;2022-12-11T15:06:25;0.10;99.90
11511;DHT22;5812;48.864;9.190;2022-12-11T15:08:53;0.00;99.90
11511;DHT22;5812;48.864;9.190;2022-12-11T15:11:19;0.00;99.90
11511;DHT22;5812;48.864;9.190;2022-12-11T15:13:58;0.00;99.90
11511;DHT22;5812;48.864;9.190;2022-12-11T15:16:27;-0.10;99.90
11511;DHT22;5812;48.864;9.190;2022-12-11T15:18:56;-0.10;99.90
11511;DHT22;5812;48.864;9.190;2022-12-11T15:21:34;-0.10;99.90
11511;DHT22;5812;48.864;9.190;2022-12-11T15:24:04;0.00;99.90
11511;DHT22;5812;48.864;9.190;2022-12-11T15:26:37;0.00;99.90
11511;DHT22;5812;48.864;9.190;2022-12-11T15:29:06;-0.10;99.90
11511;DHT22;5812;48.864;9.190;2022-12-11T15:37:21;-0.20;99.90
11511;DHT22;5812;48.864;9.190;2022-12-11T15:39:48;-0.10;99.90
11511;DHT22;5812;48.864;9.190;2022-12-11T15:42:17;0.40;99.90
11511;DHT22;5812;48.864;9.190;2022-12-11T15:44:45;-0.20;99.90
11511;DHT22;5812;48.864;9.190;2022-12-11T15:47:15;-0.30;99.90
11511;DHT22;5812;48.864;9.190;2022-12-11T15:49:44;-0.30;99.90
11511;DHT22;5812;48.864;9.190;2022-12-11T15:52:10;-0.40;99.90
11511;DHT22;5812;48.864;9.190;2022-12-11T15:54:35;-0.40;99.90
11511;DHT22;5812;48.864;9.190;2022-12-11T15:57:04;-0.40;99.90
11511;DHT22;5812;48.864;9.190;2022-12-11T15:59:30;-0.50;99.90
11511;DHT22;5812;48.864;9.190;2022-12-11T16:01:57;-0.50;99.90
11511;DHT22;5812;48.864;9.190;2022-12-11T16:04:22;-0.60;99.90
11511;DHT22;5812;48.864;9.190;2022-12-11T16:06:48;-0.70;99.90
11511;DHT22;5812;48.864;9.190;2022-12-11T16:09:14;-0.70;99.90
11511;DHT22;5812;48.864;9.190;2022-12-11T16:11:40;-0.70;99.90
11511;DHT22;5812;48.864;9.190;2022-12-11T16:14:06;-0.80;99.90
11511;DHT22;5812;48.864;9.190;2022-12-11T16:16:31;-0.80;99.90
11511;DHT22;5812;48.864;9.190;2022-12-11T16:18:57;-0.80;99.90
11511;DHT22;5812;48.864;9.190;2022-12-11T16:21:22;-0.80;99.90
11511;DHT22;5812;48.864;9.190;2022-12-11T16:23:48;-0.80;99.90
11511;DHT22;5812;48.864;9.190;2022-12-11T16:26:14;-0.80;99.90
11511;DHT22;5812;48.864;9.190;2022-12-11T16:28:40;-0.90;99.90
11511;DHT22;5812;48.864;9.190;2022-12-11T16:31:11;-0.90;99.90
11511;DHT22;5812;48.864;9.190;2022-12-11T16:33:37;-1.00;99.90
11511;DHT22;5812;48.864;9.190;2022-12-11T16:36:19;-1.00;99.90
11511;DHT22;5812;48.864;9.190;2022-12-11T16:38:46;-1.00;99.90
11511;DHT22;5812;48.864;9.190;2022-12-11T16:41:12;-1.00;99.90
11511;DHT22;5812;48.864;9.190;2022-12-11T16:43:37;-1.10;99.90
11511;DHT22;5812;48.864;9.190;2022-12-11T16:46:03;-1.10;99.90
11511;DHT22;5812;48.864;9.190;2022-12-11T16:48:29;-1.20;99.90
11511;DHT22;5812;48.864;9.190;2022-12-11T16:50:54;-1.20;99.90
11511;DHT22;5812;48.864;9.190;2022-12-11T16:53:21;-1.20;99.90
11511;DHT22;5812;48.864;9.190;2022-12-11T16:55:46;-1.20;99.90
11511;DHT22;5812;48.864;9.190;2022-12-11T16:58:12;-1.30;99.90
11511;DHT22;5812;48.864;9.190;2022-12-11T17:00:47;-1.30;99.90
11511;DHT22;5812;48.864;9.190;2022-12-11T17:03:13;-1.20;99.90
11511;DHT22;5812;48.864;9.190;2022-12-11T17:05:39;-1.30;99.90
11511;DHT22;5812;48.864;9.190;2022-12-11T17:08:06;-1.30;99.90
11511;DHT22;5812;48.864;9.190;2022-12-11T17:10:31;-1.30;99.90
11511;DHT22;5812;48.864;9.190;2022-12-11T17:12:57;-1.30;99.90
11511;DHT22;5812;48.864;9.190;2022-12-11T17:15:22;-1.30;99.90
11511;DHT22;5812;48.864;9.190;2022-12-11T17:17:48;-1.30;99.90
11511;DHT22;5812;48.864;9.190;2022-12-11T17:20:14;-1.30;99.90
11511;DHT22;5812;48.864;9.190;2022-12-11T17:22:39;-1.30;99.90
11511;DHT22;5812;48.864;9.190;2022-12-11T17:25:05;-1.20;99.90